AM-0003 weather

Hoktember Highway Strip
Hoktember, Armavir Province, Armenia

Public forecast

Using degrees Celsius for public forecast. Weather courtesy of forecast.io.

METAR (pilot weather report)

Closest report is Zvartnots International Airport, 23.9 nm (44.3 km) E. Retrieved 2019/03/22 07:30 UTC (17 minutes ago):

UDYZ 220730Z VRB01KT 9999 NSC 08/00 Q1020 R09/010070 NOSIG

TAF (pilot weather forecast)

Closest forecast is Zvartnots International Airport, 23.9 nm (44.3 km) E. Retrieved 2019/03/22 06:00 UTC (2 hours ago):

TAF UDYZ 220508Z 2206/2306 15006KT 9999 FEW040 SCT100 TEMPO 2215/2224 05016KT